Ardenhurst, Minnesota
Current Conditions -  °F | °C
As of 4:33 AM on Monday 20 Oct 2014 (Local Time) from KFOZ Reporting Station
Clear Clear  
Wind Chill:   Ceiling: Unl
Heat Index:   Visibility: 10mi
Dew Point:   Wind: 0mph
Humidity: 87%   Direction: NA
Pressure: 29.92"   Gusts: NA
Location:  47.8312°N, 94.1459°W
Report Text: KFOZ 200933Z AUTO 00000KT 10SM CLR 06/04 A2992 RMK AO2
Loading
Personal Weather Stations






























Interactive Weather Map
Tropical Storm Tracking
New forecast layout! Learn more

10-Day Weather Forecast

Advertisements
Track Severe Weather on mobile